createdAt,value
2017-05-31T00:00:29.297Z,21.54
2017-05-31T00:02:57.177Z,22.48
2017-05-31T00:05:25.057Z,21.06
2017-05-31T00:07:52.984Z,23.26
2017-05-31T00:10:20.864Z,26.24
2017-05-31T00:12:48.757Z,23.04
2017-05-31T00:15:16.529Z,28.00
2017-05-31T00:17:44.412Z,22.68
2017-05-31T00:20:12.316Z,27.88
2017-05-31T00:22:40.210Z,25.86
2017-05-31T00:25:08.089Z,26.88
2017-05-31T00:27:35.956Z,29.14
2017-05-31T00:30:03.870Z,31.76
2017-05-31T00:32:31.352Z,27.50
2017-05-31T00:34:59.221Z,32.74
2017-05-31T00:37:26.739Z,31.84
2017-05-31T00:39:54.616Z,34.44
2017-05-31T00:42:22.489Z,38.20
2017-05-31T00:44:50.410Z,31.32
2017-05-31T00:47:18.282Z,31.16
2017-05-31T00:49:46.277Z,36.42
2017-05-31T00:52:14.178Z,37.10
2017-05-31T00:54:42.070Z,38.52
2017-05-31T00:57:09.964Z,37.56
2017-05-31T00:59:38.098Z,34.70
2017-05-31T01:02:05.977Z,37.30
2017-05-31T01:04:33.859Z,39.42
2017-05-31T01:07:02.103Z,35.48
2017-05-31T01:09:29.615Z,32.78
2017-05-31T01:11:57.491Z,34.36
2017-05-31T01:14:25.534Z,33.88
2017-05-31T01:16:53.420Z,34.28
2017-05-31T01:19:20.915Z,35.78
2017-05-31T01:21:48.801Z,34.82
2017-05-31T01:24:16.280Z,36.04
2017-05-31T01:26:44.164Z,33.88
2017-05-31T01:29:12.369Z,32.58
2017-05-31T01:31:40.236Z,38.88
2017-05-31T01:34:07.724Z,41.36
2017-05-31T01:36:35.240Z,39.56
2017-05-31T01:39:02.723Z,38.18
2017-05-31T01:41:30.206Z,33.30
2017-05-31T01:43:58.220Z,39.82
2017-05-31T01:46:26.095Z,39.56
2017-05-31T01:48:53.581Z,36.34
2017-05-31T01:51:21.509Z,33.66
2017-05-31T01:53:49.386Z,40.30
2017-05-31T01:56:16.868Z,34.24
2017-05-31T01:58:44.774Z,40.02
2017-05-31T02:01:12.653Z,37.80
2017-05-31T02:03:40.145Z,36.18
2017-05-31T02:06:08.071Z,37.02
2017-05-31T02:08:35.946Z,37.28
2017-05-31T02:11:03.821Z,36.06
2017-05-31T02:13:31.335Z,39.30
2017-05-31T02:15:59.205Z,36.62
2017-05-31T02:18:27.086Z,36.12
2017-05-31T02:20:55.020Z,34.38
2017-05-31T02:23:22.914Z,33.32
2017-05-31T02:25:51.056Z,40.72
2017-05-31T02:28:19.287Z,33.96
2017-05-31T02:30:47.192Z,37.50
2017-05-31T02:33:15.091Z,34.18
2017-05-31T02:35:43.005Z,38.58
2017-05-31T02:38:10.903Z,40.02
2017-05-31T02:40:38.799Z,33.54
2017-05-31T02:43:06.685Z,38.16
2017-05-31T02:45:34.578Z,31.34
2017-05-31T02:48:02.470Z,32.82
2017-05-31T02:50:30.580Z,31.90
2017-05-31T02:52:58.458Z,29.94
2017-05-31T02:55:26.341Z,33.26
2017-05-31T02:57:54.362Z,33.60
2017-05-31T03:00:21.843Z,34.58
2017-05-31T03:02:49.323Z,32.96
2017-05-31T03:05:17.463Z,29.56
2017-05-31T03:07:45.363Z,31.02
2017-05-31T03:10:13.254Z,32.52
2017-05-31T03:12:41.178Z,36.34
2017-05-31T03:15:09.053Z,25.90
2017-05-31T03:17:36.538Z,32.30
2017-05-31T03:20:04.464Z,33.14
2017-05-31T03:22:32.354Z,31.28
2017-05-31T03:25:00.240Z,35.22
2017-05-31T03:27:28.343Z,33.94
2017-05-31T03:29:56.222Z,33.48
2017-05-31T03:32:24.103Z,32.14
2017-05-31T03:34:52.023Z,33.74
2017-05-31T03:37:19.506Z,32.02
2017-05-31T03:39:46.998Z,38.34
2017-05-31T03:42:14.931Z,35.40
2017-05-31T03:44:42.818Z,33.28
2017-05-31T03:47:10.909Z,32.70
2017-05-31T03:49:39.022Z,33.96
2017-05-31T03:52:06.924Z,34.10
2017-05-31T03:54:34.826Z,39.48
2017-05-31T03:57:02.752Z,33.64
2017-05-31T03:59:30.631Z,30.76
2017-05-31T04:01:58.505Z,35.36
2017-05-31T04:04:26.410Z,32.14
2017-05-31T04:06:54.290Z,31.90
2017-05-31T04:09:22.174Z,36.58
2017-05-31T04:11:50.157Z,37.82
2017-05-31T04:14:18.038Z,40.92
2017-05-31T04:16:45.941Z,36.54
2017-05-31T04:19:13.838Z,34.14
2017-05-31T04:21:41.731Z,35.00
2017-05-31T04:24:09.611Z,35.40
2017-05-31T04:26:37.543Z,31.26
2017-05-31T04:29:05.426Z,37.62
2017-05-31T04:31:33.308Z,34.62
2017-05-31T04:34:01.214Z,50.54
2017-05-31T04:36:29.538Z,30.92
2017-05-31T04:38:57.413Z,27.50
2017-05-31T04:41:25.818Z,23.66
2017-05-31T04:43:53.718Z,22.98
2017-05-31T04:46:21.606Z,31.08
2017-05-31T04:48:49.833Z,46.34
2017-05-31T04:51:17.739Z,26.88
2017-05-31T04:53:45.638Z,20.96
2017-05-31T04:56:13.914Z,19.90
2017-05-31T04:58:42.153Z,20.00
2017-05-31T05:01:09.632Z,22.90
2017-05-31T05:03:37.154Z,27.84
2017-05-31T05:06:04.634Z,18.92
2017-05-31T05:08:32.691Z,16.40
2017-05-31T05:11:00.502Z,21.76
2017-05-31T05:13:29.011Z,16.12
2017-05-31T05:15:56.890Z,14.76
2017-05-31T05:18:24.810Z,16.46
2017-05-31T05:20:52.686Z,16.20
2017-05-31T05:23:20.558Z,14.58
2017-05-31T05:25:48.813Z,16.26
2017-05-31T05:28:16.693Z,18.12
2017-05-31T05:30:44.571Z,23.40
2017-05-31T05:33:12.987Z,9.82
2017-05-31T05:35:40.880Z,11.20
2017-05-31T05:38:08.758Z,10.38
2017-05-31T05:40:36.670Z,12.80
2017-05-31T05:43:04.854Z,9.96
2017-05-31T05:45:32.730Z,13.38
2017-05-31T05:48:00.730Z,11.10
2017-05-31T05:50:28.620Z,24.10
2017-05-31T05:52:56.491Z,11.50
2017-05-31T05:55:24.730Z,7.70
2017-05-31T05:57:52.624Z,9.56
2017-05-31T06:00:20.526Z,9.08
2017-05-31T06:02:48.463Z,7.40
2017-05-31T06:05:16.335Z,6.80
2017-05-31T06:07:44.213Z,10.10
2017-05-31T06:10:12.428Z,12.00
2017-05-31T06:12:40.328Z,10.74
2017-05-31T06:15:08.206Z,8.12
2017-05-31T06:17:36.121Z,10.62
2017-05-31T06:20:03.612Z,6.34
2017-05-31T06:22:31.496Z,7.40
2017-05-31T06:24:59.509Z,7.76
2017-05-31T06:27:27.395Z,5.06
2017-05-31T06:29:55.263Z,5.18
2017-05-31T06:32:23.177Z,7.20
2017-05-31T06:34:51.046Z,8.00
2017-05-31T06:37:18.918Z,7.96
2017-05-31T06:39:46.450Z,5.92
2017-05-31T06:42:14.323Z,7.14
2017-05-31T06:44:42.202Z,8.70
2017-05-31T06:47:10.399Z,6.28
2017-05-31T06:49:38.278Z,5.36
2017-05-31T06:52:06.147Z,7.94
2017-05-31T06:54:34.054Z,8.58
2017-05-31T06:57:01.927Z,5.70
2017-05-31T06:59:29.838Z,6.14
2017-05-31T07:01:57.745Z,4.80
2017-05-31T07:04:25.621Z,4.52
2017-05-31T07:06:53.498Z,5.18
2017-05-31T07:09:21.010Z,6.00
2017-05-31T07:11:48.893Z,5.20
2017-05-31T07:14:16.377Z,4.32
2017-05-31T07:16:43.923Z,5.94
2017-05-31T07:19:11.818Z,6.30
2017-05-31T07:21:39.710Z,6.66
2017-05-31T07:24:07.614Z,4.62
2017-05-31T07:26:35.533Z,5.24
2017-05-31T07:29:03.645Z,4.48
2017-05-31T07:31:31.760Z,11.28
2017-05-31T07:33:59.265Z,3.70
2017-05-31T07:36:27.156Z,3.22
2017-05-31T07:38:55.058Z,3.42
2017-05-31T07:41:22.939Z,3.26
2017-05-31T07:43:50.829Z,3.96
2017-05-31T07:46:18.834Z,3.50
2017-05-31T07:48:46.717Z,4.22
2017-05-31T07:51:14.594Z,6.18
2017-05-31T07:53:43.074Z,4.46
2017-05-31T07:56:11.387Z,4.68
2017-05-31T07:58:39.254Z,5.08
2017-05-31T08:01:07.183Z,3.88
2017-05-31T08:03:35.186Z,5.42
2017-05-31T08:06:03.081Z,2.80
2017-05-31T08:08:30.605Z,3.76
2017-05-31T08:10:58.477Z,4.42
2017-05-31T08:13:26.137Z,5.06
2017-05-31T08:15:54.234Z,2.90
2017-05-31T08:18:22.107Z,5.12
2017-05-31T08:20:49.603Z,3.82
2017-05-31T08:23:17.519Z,3.10
2017-05-31T08:25:45.399Z,5.04
2017-05-31T08:28:12.870Z,4.22
2017-05-31T08:30:40.798Z,3.34
2017-05-31T08:33:08.680Z,3.30
2017-05-31T08:35:36.153Z,4.30
2017-05-31T08:38:04.055Z,3.82
2017-05-31T08:40:31.634Z,4.66
2017-05-31T08:42:59.523Z,6.34
2017-05-31T08:45:27.460Z,3.76
2017-05-31T08:47:55.727Z,4.12
2017-05-31T08:50:23.603Z,3.42
2017-05-31T08:52:51.947Z,3.88
2017-05-31T08:55:19.849Z,4.10
2017-05-31T08:57:47.720Z,3.00
2017-05-31T09:00:15.637Z,4.04
2017-05-31T09:02:43.138Z,4.38
2017-05-31T09:05:11.910Z,4.98
2017-05-31T09:07:39.822Z,6.58
2017-05-31T09:10:07.697Z,3.26
2017-05-31T09:12:35.578Z,5.74
2017-05-31T09:15:03.709Z,6.22
2017-05-31T09:17:31.186Z,9.82
2017-05-31T09:19:59.062Z,9.62
2017-05-31T09:22:26.993Z,8.12
2017-05-31T09:24:54.490Z,7.26
2017-05-31T09:27:21.973Z,6.22
2017-05-31T09:29:50.760Z,4.52
2017-05-31T09:32:18.979Z,6.14
2017-05-31T09:34:46.851Z,6.04
2017-05-31T09:37:14.856Z,6.12
2017-05-31T09:39:42.343Z,5.88
2017-05-31T09:42:10.698Z,6.80
2017-05-31T09:44:38.600Z,5.04
2017-05-31T09:47:06.494Z,5.24
2017-05-31T09:49:34.298Z,5.04
2017-05-31T09:52:02.189Z,6.00
2017-05-31T09:54:30.575Z,4.48
2017-05-31T09:56:58.458Z,4.88
2017-05-31T09:59:26.361Z,7.24
2017-05-31T10:01:54.419Z,6.80
2017-05-31T10:04:22.299Z,7.72
2017-05-31T10:06:50.374Z,5.16
2017-05-31T10:09:18.521Z,5.96
2017-05-31T10:14:20.721Z,7.50
2017-05-31T10:16:48.612Z,10.62
2017-05-31T10:19:16.498Z,6.48
2017-05-31T10:21:44.409Z,8.72
2017-05-31T10:24:11.901Z,4.90
2017-05-31T10:26:40.221Z,5.98
2017-05-31T10:29:08.250Z,7.90
2017-05-31T10:31:36.119Z,6.64
2017-05-31T10:34:03.607Z,9.10
2017-05-31T10:36:31.130Z,6.66
2017-05-31T10:38:59.020Z,9.68
2017-05-31T10:41:26.895Z,8.14
2017-05-31T10:43:54.790Z,7.40
2017-05-31T10:46:22.673Z,5.10
2017-05-31T10:48:50.173Z,7.76
2017-05-31T10:51:18.089Z,6.08
2017-05-31T10:53:45.985Z,8.24
2017-05-31T10:56:13.873Z,9.68
2017-05-31T10:58:41.792Z,11.08
2017-05-31T11:01:09.685Z,6.72
2017-05-31T11:03:37.596Z,5.46
2017-05-31T11:06:05.813Z,6.02
2017-05-31T11:08:33.683Z,5.24
2017-05-31T11:11:01.565Z,7.12
2017-05-31T11:13:29.477Z,4.92
2017-05-31T11:15:57.354Z,5.82
2017-05-31T11:18:25.232Z,10.38
2017-05-31T11:20:53.426Z,6.76
2017-05-31T11:23:21.313Z,5.88
2017-05-31T11:25:49.210Z,6.66
2017-05-31T11:28:17.110Z,6.36
2017-05-31T11:30:44.984Z,7.42
2017-05-31T11:33:12.860Z,8.04
2017-05-31T11:35:40.806Z,4.00
2017-05-31T11:38:08.713Z,8.04
2017-05-31T11:40:36.589Z,7.40
2017-05-31T11:43:04.706Z,9.40
2017-05-31T11:45:32.596Z,5.34
2017-05-31T11:48:00.485Z,7.54
2017-05-31T11:50:28.782Z,8.14
2017-05-31T11:52:56.654Z,4.86
2017-05-31T11:55:24.531Z,8.14
2017-05-31T11:57:52.457Z,10.44
2017-05-31T12:00:19.933Z,7.64
2017-05-31T12:02:47.826Z,8.60
2017-05-31T12:05:15.873Z,12.90
2017-05-31T12:07:43.366Z,4.24
2017-05-31T12:10:11.257Z,6.96
2017-05-31T12:12:39.154Z,6.90
2017-05-31T12:15:07.031Z,7.62
2017-05-31T12:17:34.540Z,5.44
2017-05-31T12:20:02.679Z,9.42
2017-05-31T12:22:30.550Z,9.14
2017-05-31T12:24:58.045Z,6.96
2017-05-31T12:27:25.970Z,8.20
2017-05-31T12:29:53.839Z,6.14
2017-05-31T12:32:21.726Z,7.98
2017-05-31T12:34:49.881Z,6.88
2017-05-31T12:37:17.387Z,6.30
2017-05-31T12:39:45.293Z,12.24
2017-05-31T12:42:13.175Z,7.44
2017-05-31T12:44:41.154Z,7.56
2017-05-31T12:47:09.043Z,7.92
2017-05-31T12:49:36.950Z,7.54
2017-05-31T12:52:04.844Z,7.34
2017-05-31T12:54:32.329Z,6.58
2017-05-31T12:57:00.266Z,10.42
2017-05-31T12:59:28.161Z,10.82
2017-05-31T13:01:56.029Z,9.96
2017-05-31T13:04:24.129Z,6.62
2017-05-31T13:06:52.728Z,9.32
2017-05-31T13:09:20.636Z,7.48
2017-05-31T13:11:48.560Z,8.38
2017-05-31T13:14:16.438Z,8.28
2017-05-31T13:16:44.797Z,6.40
2017-05-31T13:19:12.301Z,10.18
2017-05-31T13:21:40.206Z,9.98
2017-05-31T13:24:08.150Z,11.28
2017-05-31T13:26:36.080Z,7.94
2017-05-31T13:29:04.012Z,10.48
2017-05-31T13:31:31.887Z,12.06
2017-05-31T13:33:59.812Z,11.06
2017-05-31T13:36:27.306Z,7.62
2017-05-31T13:38:55.203Z,9.92
2017-05-31T13:41:23.102Z,7.82
2017-05-31T13:43:50.976Z,9.68
2017-05-31T13:46:18.857Z,9.58
2017-05-31T13:48:47.050Z,11.92
2017-05-31T13:51:14.942Z,7.92
2017-05-31T13:53:42.840Z,7.16
2017-05-31T13:56:10.950Z,8.82
2017-05-31T13:58:38.859Z,6.26
2017-05-31T14:01:06.767Z,6.02
2017-05-31T14:03:34.707Z,5.42
2017-05-31T14:06:02.586Z,9.16
2017-05-31T14:08:30.302Z,11.34
2017-05-31T14:10:58.201Z,7.12
2017-05-31T14:13:26.107Z,7.22
2017-05-31T14:15:53.586Z,6.38
2017-05-31T14:18:21.526Z,5.66
2017-05-31T14:20:49.432Z,8.30
2017-05-31T14:23:17.344Z,10.02
2017-05-31T14:25:45.207Z,9.32
2017-05-31T14:28:13.073Z,8.18
2017-05-31T14:30:40.962Z,16.22
2017-05-31T14:33:08.854Z,10.50
2017-05-31T14:35:36.760Z,7.38
2017-05-31T14:38:04.644Z,8.36
2017-05-31T14:40:32.922Z,5.94
2017-05-31T14:43:01.890Z,8.96
2017-05-31T14:45:29.793Z,10.56
2017-05-31T14:47:57.403Z,11.62
2017-05-31T14:50:25.288Z,17.74
2017-05-31T14:52:53.178Z,14.88
2017-05-31T14:55:21.097Z,8.52
2017-05-31T14:57:48.578Z,10.20
2017-05-31T15:00:17.049Z,9.18
2017-05-31T15:02:45.249Z,12.02
2017-05-31T15:05:12.750Z,15.92
2017-05-31T15:07:40.233Z,14.54
2017-05-31T15:10:07.744Z,11.32
2017-05-31T15:12:35.625Z,9.28
2017-05-31T15:15:03.524Z,12.10
2017-05-31T15:17:31.812Z,14.94
2017-05-31T15:19:59.828Z,9.42
2017-05-31T15:22:27.314Z,11.34
2017-05-31T15:27:30.860Z,7.12
2017-05-31T15:29:59.029Z,9.28
2017-05-31T15:32:26.539Z,10.92
2017-05-31T15:34:54.445Z,13.30
2017-05-31T15:37:22.367Z,16.16
2017-05-31T15:39:50.271Z,13.60
2017-05-31T15:42:18.184Z,9.28
2017-05-31T15:44:46.215Z,20.86
2017-05-31T15:47:14.116Z,21.62
2017-05-31T15:49:43.200Z,7.34
2017-05-31T15:52:11.938Z,5.30
2017-05-31T15:54:40.425Z,8.42
2017-05-31T15:57:07.931Z,7.44
2017-05-31T15:59:35.856Z,10.00
2017-05-31T16:02:03.378Z,8.24
2017-05-31T16:04:31.298Z,24.36
2017-05-31T16:06:59.542Z,74.20
2017-05-31T16:09:27.021Z,11.06
2017-05-31T16:11:54.900Z,11.82
2017-05-31T16:14:22.834Z,10.26
2017-05-31T16:16:50.944Z,12.98
2017-05-31T16:19:18.840Z,11.74
2017-05-31T16:21:47.509Z,9.66
2017-05-31T16:24:15.388Z,11.20
2017-05-31T16:26:42.893Z,13.44
2017-05-31T16:29:11.135Z,7.00
2017-05-31T16:31:39.101Z,15.42
2017-05-31T16:34:07.044Z,13.66
2017-05-31T16:36:36.040Z,6.92
2017-05-31T16:39:03.942Z,9.10
2017-05-31T16:41:32.048Z,10.42
2017-05-31T16:43:59.968Z,9.86
2017-05-31T16:46:27.866Z,12.00
2017-05-31T16:48:55.754Z,8.96
2017-05-31T16:51:24.634Z,11.90
2017-05-31T16:53:52.568Z,11.32
2017-05-31T16:56:20.579Z,9.52
2017-05-31T16:58:48.832Z,10.92
2017-05-31T17:01:16.723Z,11.20
2017-05-31T17:03:44.715Z,13.38
2017-05-31T17:06:12.899Z,15.22
2017-05-31T17:08:40.842Z,12.68
2017-05-31T17:11:08.815Z,12.70
2017-05-31T17:13:36.844Z,16.92
2017-05-31T17:16:04.831Z,8.48
2017-05-31T17:18:33.745Z,8.34
2017-05-31T17:21:01.692Z,9.46
2017-05-31T17:23:30.206Z,9.46
2017-05-31T17:25:58.331Z,14.04
2017-05-31T17:28:28.042Z,19.30
2017-05-31T17:30:56.031Z,9.66
2017-05-31T17:33:25.409Z,12.68
2017-05-31T17:35:53.521Z,10.58
2017-05-31T17:38:22.076Z,11.60
2017-05-31T17:40:50.188Z,13.74
2017-05-31T17:43:19.276Z,12.56
2017-05-31T17:45:47.699Z,12.28
2017-05-31T17:48:15.904Z,8.96
2017-05-31T17:50:44.293Z,9.30
2017-05-31T17:53:12.607Z,9.36
2017-05-31T17:55:40.979Z,9.62
2017-05-31T17:58:10.649Z,13.86
2017-05-31T18:00:40.189Z,14.88
2017-05-31T18:03:08.554Z,11.60
2017-05-31T18:05:36.598Z,12.06
2017-05-31T18:08:04.879Z,10.28
2017-05-31T18:10:33.193Z,8.42
2017-05-31T18:13:01.728Z,7.42
2017-05-31T18:15:30.057Z,16.66
2017-05-31T18:17:57.977Z,17.62
2017-05-31T18:20:26.414Z,14.20
2017-05-31T18:22:54.745Z,9.86
2017-05-31T18:25:23.081Z,10.20
2017-05-31T18:27:52.417Z,12.48
2017-05-31T18:30:20.770Z,6.58
2017-05-31T18:32:49.267Z,11.44
2017-05-31T18:35:17.861Z,7.12
2017-05-31T18:37:46.303Z,10.54
2017-05-31T18:40:14.640Z,9.34
2017-05-31T18:42:44.094Z,6.54
2017-05-31T18:45:12.530Z,12.98
2017-05-31T18:47:40.968Z,10.44
2017-05-31T18:50:09.735Z,31.80
2017-05-31T18:52:38.076Z,48.22
2017-05-31T18:55:06.789Z,17.64
2017-05-31T18:57:34.971Z,9.60
2017-05-31T19:00:03.389Z,9.62
2017-05-31T19:02:31.747Z,9.00
2017-05-31T19:05:00.258Z,12.78
2017-05-31T19:07:29.478Z,45.88
2017-05-31T19:09:57.819Z,32.36
2017-05-31T19:12:26.399Z,19.94
2017-05-31T19:14:55.035Z,10.92
2017-05-31T19:17:23.818Z,16.64
2017-05-31T19:19:52.249Z,16.12
2017-05-31T19:22:20.780Z,14.48
2017-05-31T19:24:48.721Z,11.02
2017-05-31T19:27:18.239Z,16.80
2017-05-31T19:29:46.579Z,13.58
2017-05-31T19:32:15.961Z,12.04
2017-05-31T19:34:45.501Z,12.64
2017-05-31T19:37:13.822Z,7.58
2017-05-31T19:39:42.435Z,12.84
2017-05-31T19:42:10.903Z,9.04
2017-05-31T19:44:39.236Z,16.04
2017-05-31T19:47:08.103Z,14.40
2017-05-31T19:49:36.897Z,12.90
2017-05-31T19:52:05.224Z,38.38
2017-05-31T19:54:33.185Z,28.40
2017-05-31T19:57:01.839Z,22.70
2017-05-31T19:59:30.250Z,25.16
2017-05-31T20:01:58.261Z,20.34
2017-05-31T20:04:26.263Z,18.98
2017-05-31T20:06:54.295Z,12.24
2017-05-31T20:09:22.641Z,16.26
2017-05-31T20:11:51.378Z,17.98
2017-05-31T20:14:20.279Z,21.22
2017-05-31T20:16:48.606Z,16.40
2017-05-31T20:19:18.236Z,14.94
2017-05-31T20:21:46.882Z,16.24
2017-05-31T20:24:19.058Z,11.44
2017-05-31T20:26:47.931Z,16.48
2017-05-31T20:29:17.535Z,18.42
2017-05-31T20:31:46.221Z,42.72
2017-05-31T20:34:15.181Z,20.20
2017-05-31T20:36:43.710Z,12.22
2017-05-31T20:39:12.026Z,16.24
2017-05-31T20:41:41.618Z,16.94
2017-05-31T20:44:10.621Z,25.34
2017-05-31T20:46:39.227Z,16.90
2017-05-31T20:49:07.785Z,17.86
2017-05-31T20:51:36.164Z,18.08
2017-05-31T20:54:04.578Z,20.62
2017-05-31T20:56:36.170Z,17.44
2017-05-31T20:59:04.491Z,13.32
2017-05-31T21:01:32.939Z,14.08
2017-05-31T21:04:01.213Z,13.34
2017-05-31T21:06:29.429Z,15.80
2017-05-31T21:08:58.317Z,15.86
2017-05-31T21:11:26.614Z,9.90
2017-05-31T21:13:54.918Z,14.46
2017-05-31T21:16:23.279Z,13.00
2017-05-31T21:18:51.785Z,17.14
2017-05-31T21:21:20.471Z,31.02
2017-05-31T21:23:48.602Z,25.20
2017-05-31T21:26:16.919Z,46.64
2017-05-31T21:28:45.633Z,34.04
2017-05-31T21:31:14.113Z,21.28
2017-05-31T21:33:42.163Z,50.38
2017-05-31T21:36:10.144Z,88.12
2017-05-31T21:38:38.325Z,36.08
2017-05-31T21:41:06.256Z,12.74
2017-05-31T21:43:34.817Z,17.48
2017-05-31T21:46:03.016Z,18.18
2017-05-31T21:48:32.044Z,25.48
2017-05-31T21:50:59.563Z,18.30
2017-05-31T21:53:27.486Z,12.60
2017-05-31T21:55:55.007Z,15.76
2017-05-31T21:58:22.897Z,16.08
2017-05-31T22:00:51.412Z,10.54
2017-05-31T22:03:19.286Z,57.94
2017-05-31T22:05:47.163Z,42.82
2017-05-31T22:08:14.705Z,27.20
2017-05-31T22:10:42.204Z,13.50
2017-05-31T22:13:10.121Z,13.34
2017-05-31T22:15:38.461Z,12.70
2017-05-31T22:18:05.950Z,17.74
2017-05-31T22:20:34.000Z,18.90
2017-05-31T22:23:02.111Z,14.76
2017-05-31T22:25:29.987Z,15.20
2017-05-31T22:27:57.887Z,14.80
2017-05-31T22:30:26.024Z,11.42
2017-05-31T22:32:53.926Z,11.96
2017-05-31T22:35:21.834Z,19.46
2017-05-31T22:37:50.337Z,11.38
2017-05-31T22:40:18.233Z,10.00
2017-05-31T22:42:46.106Z,9.42
2017-05-31T22:45:14.021Z,16.90
2017-05-31T22:47:41.944Z,10.46
2017-05-31T22:50:09.810Z,22.36
2017-05-31T22:52:38.624Z,16.00
2017-05-31T22:55:06.521Z,21.82
2017-05-31T22:57:34.399Z,13.02
2017-05-31T23:00:02.305Z,11.02
2017-05-31T23:02:30.206Z,15.90
2017-05-31T23:04:57.707Z,10.24
2017-05-31T23:09:58.558Z,52.74
2017-05-31T23:12:26.058Z,71.86
2017-05-31T23:14:53.934Z,21.96
2017-05-31T23:17:21.678Z,15.30
2017-05-31T23:19:49.578Z,20.62
2017-05-31T23:25:01.686Z,13.16
2017-05-31T23:27:29.769Z,19.64
2017-05-31T23:29:57.248Z,11.68
2017-05-31T23:32:24.732Z,13.40
2017-05-31T23:34:52.631Z,22.78
2017-05-31T23:37:20.504Z,13.46
2017-05-31T23:39:47.996Z,17.28
2017-05-31T23:42:16.012Z,12.42
2017-05-31T23:44:43.901Z,15.76
2017-05-31T23:47:11.793Z,17.88
2017-05-31T23:49:40.683Z,18.68
2017-05-31T23:52:08.584Z,14.52
2017-05-31T23:54:36.474Z,13.82
2017-05-31T23:57:04.718Z,11.80
2017-05-31T23:59:32.437Z,18.94
